Terminal Aerodrome Forecast
Issued by NWS

Home | Current Version | Previous Version | Text Only | Print | Product List | Glossary On
Versions: 1 2 3 4 5 6 7 8 9 10 11 12 13 14 15 16 17 18 19
000
FTUS46 KEKA 281741
TAFUKI
TAF
KUKI 281741Z 2818/2918 34005KT P6SM SCT250
     FM290000 32005KT P6SM BKN250
     FM290600 VRB03KT P6SM FEW015 SCT250=

USA.gov is the U.S. government's official web portal to all federal, state and local government web resources and services.